Time;durP1;ratioP1;P1;durP2;ratioP2;P2;SDS_P1;SDS_P2;PMS_P1;PMS_P2;Temp;Humidity;BMP_temperature;BMP_pressure;BME280_temperature;BME280_humidity;BME280_pressure;Samples;Min_cycle;Max_cycle;Signal;HPM_P1;HPM_P2
2022/09/30 00:02:14;;;;;;;1.37;0.70;;;9.60;99.90;;;;;;5073680;28;20456;-75
2022/09/30 00:04:42;;;;;;;0.40;0.40;;;9.60;99.90;;;;;;5073547;28;20469;-75
2022/09/30 00:07:09;;;;;;;0.73;0.70;;;9.60;99.90;;;;;;5073605;28;20458;-75
2022/09/30 00:09:36;;;;;;;0.93;0.80;;;9.70;99.90;;;;;;5073199;28;20988;-75
2022/09/30 00:12:02;;;;;;;1.90;0.83;;;9.70;99.90;;;;;;5073526;28;20455;-75
2022/09/30 00:14:29;;;;;;;5.93;1.27;;;9.60;99.90;;;;;;5073423;28;20469;-75
2022/09/30 00:16:56;;;;;;;4.00;0.82;;;9.60;99.90;;;;;;5073012;28;20452;-75
2022/09/30 00:19:23;;;;;;;0.43;0.37;;;9.60;99.90;;;;;;5073455;28;20199;-75
2022/09/30 00:21:51;;;;;;;0.50;0.50;;;9.60;99.90;;;;;;5073387;28;20457;-75
2022/09/30 00:24:18;;;;;;;2.03;1.13;;;9.60;99.90;;;;;;5073083;28;21008;-75
2022/09/30 00:26:45;;;;;;;0.90;0.90;;;9.60;99.90;;;;;;5073076;28;20445;-75
2022/09/30 00:29:11;;;;;;;3.27;0.70;;;9.70;99.90;;;;;;5072697;28;20867;-75
2022/09/30 00:31:39;;;;;;;0.80;0.60;;;9.70;99.90;;;;;;5073312;28;20460;-75
2022/09/30 00:34:10;;;;;;;1.73;0.90;;;9.70;99.90;;;;;;5072865;28;20988;-75
2022/09/30 00:36:42;;;;;;;1.17;1.07;;;9.60;99.90;;;;;;5073013;28;20434;-75
2022/09/30 00:39:12;;;;;;;2.87;1.03;;;9.70;99.90;;;;;;5073268;28;20429;-75
2022/09/30 00:41:39;;;;;;;2.70;1.00;;;9.60;99.90;;;;;;5072935;28;20913;-75
2022/09/30 00:44:44;;;;;;;1.23;0.90;;;9.60;99.90;;;;;;5073148;28;20470;-75
2022/09/30 00:47:27;;;;;;;3.30;1.20;;;9.70;99.90;;;;;;5072914;28;20525;-75
2022/09/30 00:49:58;;;;;;;1.00;0.90;;;9.70;99.90;;;;;;5073604;28;20495;-75
2022/09/30 00:52:25;;;;;;;1.60;0.93;;;9.60;99.90;;;;;;5073099;28;20471;-76
2022/09/30 00:54:56;;;;;;;0.87;0.50;;;9.70;99.90;;;;;;5072993;28;20470;-76
2022/09/30 00:57:22;;;;;;;1.07;1.07;;;9.60;99.90;;;;;;5073093;28;20503;-75
2022/09/30 00:59:52;;;;;;;2.77;0.90;;;9.70;99.90;;;;;;5073049;28;20450;-75
2022/09/30 01:02:18;;;;;;;1.07;0.70;;;9.70;99.90;;;;;;5073034;28;20450;-75
2022/09/30 01:04:46;;;;;;;1.13;0.70;;;9.70;99.90;;;;;;5072725;28;20475;-75
2022/09/30 01:07:14;;;;;;;0.47;0.47;;;9.70;99.90;;;;;;5072689;28;20814;-75
2022/09/30 01:09:43;;;;;;;2.30;0.63;;;9.70;99.90;;;;;;5072894;28;20534;-75
2022/09/30 01:12:14;;;;;;;1.50;1.20;;;9.70;99.90;;;;;;5072818;28;20459;-75
2022/09/30 01:14:42;;;;;;;0.90;0.60;;;9.70;99.90;;;;;;5073113;28;20537;-75
2022/09/30 01:17:13;;;;;;;1.23;0.57;;;9.70;99.90;;;;;;5072908;28;20449;-75
2022/09/30 01:20:14;;;;;;;0.67;0.67;;;9.70;99.90;;;;;;5072946;28;20441;-75
2022/09/30 01:22:48;;;;;;;1.23;0.93;;;9.70;99.90;;;;;;5072803;28;20437;-75
2022/09/30 01:25:50;;;;;;;1.03;0.63;;;9.70;99.90;;;;;;5072471;28;20472;-75
2022/09/30 01:29:04;;;;;;;0.60;0.60;;;9.70;99.90;;;;;;5074112;28;20481;-75
2022/09/30 01:31:46;;;;;;;1.23;0.50;;;9.70;99.90;;;;;;5071002;28;20448;-75
2022/09/30 01:34:21;;;;;;;1.40;0.97;;;9.70;99.90;;;;;;5076405;28;20488;-75
2022/09/30 01:37:03;;;;;;;1.27;0.67;;;9.70;99.90;;;;;;5076439;28;20429;-75
2022/09/30 01:39:41;;;;;;;1.70;1.20;;;9.70;99.90;;;;;;5076106;28;20421;-75
2022/09/30 01:42:18;;;;;;;2.07;0.70;;;9.70;99.90;;;;;;5076410;28;20421;-75
2022/09/30 01:44:54;;;;;;;1.10;1.00;;;9.70;99.90;;;;;;5076245;28;20465;-75
2022/09/30 01:47:26;;;;;;;1.17;0.67;;;9.70;99.90;;;;;;5076262;28;20429;-75
2022/09/30 01:50:00;;;;;;;0.80;0.80;;;9.70;99.90;;;;;;5076122;28;20469;-75
2022/09/30 01:52:37;;;;;;;1.07;0.60;;;9.70;99.90;;;;;;5076159;28;20521;-75
2022/09/30 01:55:09;;;;;;;0.43;0.40;;;9.70;99.90;;;;;;5076081;28;20549;-75
2022/09/30 01:57:45;;;;;;;2.97;1.53;;;9.70;99.90;;;;;;5076094;28;20433;-75
2022/09/30 02:00:14;;;;;;;2.00;1.57;;;9.60;99.90;;;;;;5075732;28;20425;-75
2022/09/30 02:02:48;;;;;;;2.47;1.40;;;9.60;99.90;;;;;;5075636;28;20461;-75
2022/09/30 02:05:20;;;;;;;0.70;0.70;;;9.50;99.90;;;;;;5075904;28;20464;-75
2022/09/30 02:07:52;;;;;;;4.00;0.83;;;9.50;99.90;;;;;;5075957;28;20434;-75
2022/09/30 02:10:24;;;;;;;0.90;0.70;;;9.50;99.90;;;;;;5075791;28;20473;-75
2022/09/30 02:12:55;;;;;;;1.40;0.90;;;9.60;99.90;;;;;;5075814;28;20490;-75
2022/09/30 02:15:25;;;;;;;0.50;0.50;;;9.60;99.90;;;;;;5075713;28;20473;-75
2022/09/30 02:17:57;;;;;;;1.50;0.90;;;9.60;99.90;;;;;;5075755;28;20437;-75
2022/09/30 02:20:27;;;;;;;0.70;0.57;;;9.60;99.90;;;;;;5075668;28;20437;-75
2022/09/30 02:23:00;;;;;;;1.60;0.50;;;9.70;99.90;;;;;;5075668;28;20461;-75
2022/09/30 02:25:32;;;;;;;1.57;1.10;;;9.70;99.90;;;;;;5075592;28;20465;-75
2022/09/30 02:28:04;;;;;;;3.60;1.43;;;9.70;99.90;;;;;;5075266;28;20489;-75
2022/09/30 02:30:31;;;;;;;0.50;0.50;;;9.70;99.90;;;;;;5075408;28;20469;-75
2022/09/30 02:33:03;;;;;;;0.70;0.70;;;9.60;99.90;;;;;;5075407;28;20449;-75
2022/09/30 02:35:34;;;;;;;0.60;0.60;;;9.60;99.90;;;;;;5075094;28;20426;-75
2022/09/30 02:38:05;;;;;;;0.67;0.60;;;9.60;99.90;;;;;;5075257;28;20430;-75
2022/09/30 02:40:38;;;;;;;1.53;1.43;;;9.60;99.90;;;;;;5075062;28;20465;-75
2022/09/30 02:43:06;;;;;;;1.17;0.90;;;9.60;99.90;;;;;;5074823;28;20441;-75
2022/09/30 02:45:39;;;;;;;0.80;0.80;;;9.60;99.90;;;;;;5075927;28;20454;-75
2022/09/30 02:48:21;;;;;;;1.17;0.60;;;9.60;99.90;;;;;;5075140;28;20790;-75
2022/09/30 02:50:52;;;;;;;0.50;0.50;;;9.60;99.90;;;;;;5075037;28;20465;-75
2022/09/30 02:53:25;;;;;;;0.67;0.67;;;9.60;99.90;;;;;;5075025;28;20215;-75
2022/09/30 02:56:06;;;;;;;5.03;1.30;;;9.60;99.90;;;;;;5075004;28;20445;-75
2022/09/30 02:58:38;;;;;;;0.53;0.50;;;9.60;99.90;;;;;;5074988;28;20441;-75
2022/09/30 03:01:06;;;;;;;1.30;0.70;;;9.60;99.90;;;;;;5074920;28;20421;-75
2022/09/30 03:03:38;;;;;;;1.43;0.77;;;9.60;99.90;;;;;;5074427;28;20845;-75
2022/09/30 03:06:05;;;;;;;2.40;1.13;;;9.60;99.90;;;;;;5074494;28;20909;-75
2022/09/30 03:08:33;;;;;;;1.33;0.60;;;9.60;99.90;;;;;;5074734;28;20449;-75
2022/09/30 03:10:59;;;;;;;0.90;0.67;;;9.50;99.90;;;;;;5074565;28;20481;-75
2022/09/30 03:13:43;;;;;;;2.10;1.17;;;9.60;99.90;;;;;;5074527;28;20473;-75
2022/09/30 03:16:19;;;;;;;0.60;0.60;;;9.60;99.90;;;;;;5075414;28;20440;-75
2022/09/30 03:19:06;;;;;;;1.00;0.70;;;9.60;99.90;;;;;;5074479;28;20438;-75
2022/09/30 03:21:54;;;;;;;0.73;0.63;;;9.50;99.90;;;;;;5074515;28;20430;-75
2022/09/30 03:24:50;;;;;;;0.60;0.60;;;9.50;99.90;;;;;;5074330;28;20832;-75
2022/09/30 03:27:25;;;;;;;0.70;0.40;;;9.50;99.90;;;;;;5072435;28;21026;-75
2022/09/30 03:29:59;;;;;;;1.60;0.83;;;9.50;99.90;;;;;;5074287;28;20465;-75
2022/09/30 03:32:42;;;;;;;2.97;1.10;;;9.50;99.90;;;;;;5074258;28;20434;-75
2022/09/30 03:35:20;;;;;;;1.27;1.20;;;9.40;99.90;;;;;;5074128;28;20465;-75
2022/09/30 03:37:56;;;;;;;1.27;0.83;;;9.30;99.90;;;;;;5074143;28;20463;-75
2022/09/30 03:40:30;;;;;;;3.17;0.80;;;9.30;99.90;;;;;;5074176;28;20490;-75
2022/09/30 03:43:03;;;;;;;0.90;0.77;;;9.20;99.90;;;;;;5073731;28;20434;-75
2022/09/30 03:45:34;;;;;;;0.40;0.40;;;9.20;99.90;;;;;;5074051;28;20430;-75
2022/09/30 03:48:05;;;;;;;1.70;0.70;;;9.30;99.90;;;;;;5073976;28;20429;-75
2022/09/30 03:50:35;;;;;;;0.90;0.80;;;9.20;99.90;;;;;;5073118;28;20469;-75
2022/09/30 03:53:03;;;;;;;0.50;0.50;;;9.20;99.90;;;;;;5073806;28;20438;-75
2022/09/30 03:55:32;;;;;;;2.00;0.80;;;9.20;99.90;;;;;;5073823;28;20453;-75
2022/09/30 03:57:59;;;;;;;0.70;0.60;;;9.10;99.90;;;;;;5073789;28;20458;-75
2022/09/30 04:00:25;;;;;;;3.20;0.90;;;9.10;99.90;;;;;;5073690;28;20448;-75
2022/09/30 04:02:52;;;;;;;0.73;0.70;;;9.10;99.90;;;;;;5073638;28;20477;-75
2022/09/30 04:05:19;;;;;;;0.77;0.70;;;9.10;99.90;;;;;;5073592;28;20465;-75
2022/09/30 04:07:47;;;;;;;0.70;0.70;;;9.00;99.90;;;;;;5073657;28;20469;-75
2022/09/30 04:10:14;;;;;;;0.70;0.70;;;9.00;99.90;;;;;;5073503;28;20473;-75
2022/09/30 04:12:41;;;;;;;2.03;1.30;;;9.10;99.90;;;;;;5073246;28;20944;-75
2022/09/30 04:15:08;;;;;;;1.03;0.73;;;9.10;99.90;;;;;;5073139;28;20468;-75
2022/09/30 04:17:35;;;;;;;0.60;0.60;;;9.10;99.90;;;;;;5073463;28;20449;-75
2022/09/30 04:20:02;;;;;;;0.80;0.80;;;9.20;99.90;;;;;;5073191;28;20457;-75
2022/09/30 04:22:29;;;;;;;1.70;1.10;;;9.20;99.90;;;;;;5073392;28;20532;-75
2022/09/30 04:24:57;;;;;;;4.53;1.10;;;9.20;99.90;;;;;;5073045;28;20969;-75
2022/09/30 04:27:23;;;;;;;2.10;0.60;;;9.30;99.90;;;;;;5073159;28;20450;-76
2022/09/30 04:29:50;;;;;;;5.20;1.03;;;9.30;99.90;;;;;;5073254;28;20445;-75
2022/09/30 04:32:17;;;;;;;4.07;1.00;;;9.30;99.90;;;;;;5073287;28;20457;-74
2022/09/30 04:34:44;;;;;;;0.60;0.53;;;9.20;99.90;;;;;;5073225;28;20466;-74
2022/09/30 04:37:10;;;;;;;1.87;1.17;;;9.30;99.90;;;;;;5072923;28;20777;-74
2022/09/30 04:39:37;;;;;;;0.60;0.60;;;9.20;99.90;;;;;;5073247;28;20464;-74
2022/09/30 04:42:05;;;;;;;0.73;0.67;;;9.20;99.90;;;;;;5073159;28;20453;-74
2022/09/30 04:44:34;;;;;;;3.77;0.80;;;9.10;99.90;;;;;;5073149;28;20505;-74
2022/09/30 04:47:00;;;;;;;0.77;0.77;;;9.10;99.90;;;;;;5072884;28;20937;-75
2022/09/30 04:49:27;;;;;;;2.60;0.83;;;9.10;99.90;;;;;;5072853;28;20456;-74
2022/09/30 04:51:54;;;;;;;1.70;1.13;;;9.10;99.90;;;;;;5073084;28;20485;-74
2022/09/30 04:54:21;;;;;;;2.73;0.90;;;9.10;99.90;;;;;;5072761;28;21066;-74
2022/09/30 04:56:47;;;;;;;1.00;0.70;;;9.20;99.90;;;;;;5073096;28;20453;-74
2022/09/30 04:59:16;;;;;;;0.80;0.70;;;9.20;99.90;;;;;;5073060;28;20449;-74
2022/09/30 05:01:43;;;;;;;1.20;1.10;;;9.20;99.90;;;;;;5073756;28;20445;-74
2022/09/30 05:04:11;;;;;;;1.90;1.30;;;9.20;99.90;;;;;;5077003;28;20480;-74
2022/09/30 05:06:38;;;;;;;0.80;0.60;;;9.20;99.90;;;;;;5077016;28;20461;-74
2022/09/30 05:09:05;;;;;;;2.70;1.20;;;9.30;99.90;;;;;;5076697;28;20940;-74
2022/09/30 05:11:32;;;;;;;2.70;0.97;;;9.30;99.90;;;;;;5076595;28;20473;-74
2022/09/30 05:13:59;;;;;;;1.13;0.77;;;9.30;99.90;;;;;;5076823;28;20469;-74
2022/09/30 05:16:27;;;;;;;2.07;1.10;;;9.30;99.90;;;;;;5076493;28;20897;-74
2022/09/30 05:18:54;;;;;;;3.50;1.33;;;9.30;99.90;;;;;;5076505;28;20445;-74
2022/09/30 05:21:21;;;;;;;1.17;1.00;;;9.30;99.90;;;;;;5076797;28;20443;-74
2022/09/30 05:23:48;;;;;;;1.93;0.73;;;9.30;99.90;;;;;;5076319;28;20988;-74
2022/09/30 05:26:15;;;;;;;1.17;1.07;;;9.30;99.90;;;;;;5076606;28;20452;-74
2022/09/30 05:28:42;;;;;;;0.60;0.50;;;9.40;99.90;;;;;;5076235;28;20484;-74
2022/09/30 05:31:09;;;;;;;0.80;0.63;;;9.40;99.90;;;;;;5076492;28;20481;-74
2022/09/30 05:33:37;;;;;;;2.20;1.17;;;9.40;99.90;;;;;;5076403;28;20466;-74
2022/09/30 05:36:06;;;;;;;0.80;0.80;;;9.40;99.90;;;;;;5076461;28;20448;-74
2022/09/30 05:38:33;;;;;;;2.37;1.07;;;9.40;99.90;;;;;;5076122;28;20454;-74
2022/09/30 05:41:07;;;;;;;0.73;0.73;;;9.50;99.90;;;;;;5076397;28;20441;-74
2022/09/30 05:43:34;;;;;;;1.70;1.30;;;9.50;99.90;;;;;;5076278;28;20465;-74
2022/09/30 05:46:00;;;;;;;1.60;0.60;;;9.50;99.90;;;;;;5076011;28;20955;-76
2022/09/30 05:48:27;;;;;;;2.60;1.40;;;9.50;99.90;;;;;;5075908;28;20459;-77
2022/09/30 05:50:57;;;;;;;1.20;1.10;;;9.50;99.90;;;;;;5076151;28;20457;-77
2022/09/30 05:53:24;;;;;;;2.30;1.00;;;9.50;99.90;;;;;;5075781;28;20495;-77
2022/09/30 05:55:52;;;;;;;4.33;0.90;;;9.50;99.90;;;;;;5075761;28;20457;-77
2022/09/30 05:58:19;;;;;;;2.00;1.13;;;9.60;99.90;;;;;;5076062;28;20452;-77
2022/09/30 06:00:47;;;;;;;1.97;1.20;;;9.60;99.90;;;;;;5075943;28;20445;-77
2022/09/30 06:03:14;;;;;;;1.17;0.80;;;9.60;99.90;;;;;;5075877;28;20441;-77
2022/09/30 06:05:41;;;;;;;0.73;0.73;;;9.70;99.90;;;;;;5075645;28;20821;-77
2022/09/30 06:08:10;;;;;;;0.97;0.60;;;9.70;99.90;;;;;;5075861;28;20452;-77
2022/09/30 06:10:40;;;;;;;2.13;1.10;;;9.80;99.90;;;;;;5075415;28;20810;-77
2022/09/30 06:13:07;;;;;;;4.10;0.90;;;10.10;99.90;;;;;;5075108;28;20456;-77
2022/09/30 06:15:35;;;;;;;2.60;1.17;;;10.30;99.90;;;;;;5075267;28;20959;-77
2022/09/30 06:18:02;;;;;;;3.10;0.97;;;10.30;99.90;;;;;;5075704;28;20454;-77
2022/09/30 06:20:30;;;;;;;1.53;0.67;;;10.30;99.90;;;;;;5075691;28;20453;-77
2022/09/30 06:22:59;;;;;;;2.50;1.57;;;10.30;99.90;;;;;;5075274;28;20450;-77
2022/09/30 06:25:27;;;;;;;1.90;0.90;;;10.30;99.90;;;;;;5076583;28;20473;-78
2022/09/30 06:27:54;;;;;;;1.40;0.70;;;10.30;99.90;;;;;;5075254;28;20487;-79
2022/09/30 06:30:20;;;;;;;1.27;0.87;;;10.30;99.90;;;;;;5075545;28;20433;-79
2022/09/30 06:32:47;;;;;;;0.80;0.80;;;10.30;99.90;;;;;;5075342;28;20476;-79
2022/09/30 06:35:15;;;;;;;1.50;1.40;;;10.30;99.90;;;;;;5075324;28;20496;-79
2022/09/30 06:37:44;;;;;;;3.93;1.13;;;10.30;99.90;;;;;;5075878;28;20440;-79
2022/09/30 06:40:12;;;;;;;0.87;0.83;;;10.30;99.90;;;;;;5075217;28;20526;-79
2022/09/30 06:42:40;;;;;;;1.10;0.60;;;10.30;99.90;;;;;;5075054;28;20433;-79
2022/09/30 06:45:09;;;;;;;0.87;0.83;;;10.30;99.90;;;;;;5073728;28;20465;-79
2022/09/30 06:47:35;;;;;;;1.50;1.00;;;10.30;99.90;;;;;;5073197;28;20549;-79
2022/09/30 06:50:02;;;;;;;3.70;0.93;;;10.30;99.90;;;;;;5074569;28;20449;-79
2022/09/30 06:52:29;;;;;;;0.70;0.70;;;10.30;99.90;;;;;;5075088;28;20481;-79
2022/09/30 06:54:56;;;;;;;1.10;1.00;;;10.30;99.90;;;;;;5075041;28;20473;-74
2022/09/30 06:57:23;;;;;;;1.23;0.90;;;10.30;99.90;;;;;;5074989;28;20523;-74
2022/09/30 06:59:52;;;;;;;1.00;1.00;;;10.30;99.90;;;;;;5074940;28;20857;-75
2022/09/30 07:02:20;;;;;;;1.67;1.37;;;10.40;99.90;;;;;;5074864;28;20445;-75
2022/09/30 07:04:47;;;;;;;1.30;1.17;;;10.40;99.90;;;;;;5074758;28;20497;-75
2022/09/30 07:07:14;;;;;;;2.27;1.17;;;10.30;99.90;;;;;;5074814;28;20449;-75
2022/09/30 07:09:42;;;;;;;1.00;0.70;;;10.30;99.90;;;;;;5074747;28;20544;-75
2022/09/30 07:12:08;;;;;;;1.67;1.57;;;10.30;99.90;;;;;;5074304;28;20481;-75
2022/09/30 07:14:36;;;;;;;1.43;0.93;;;10.30;99.90;;;;;;5074554;28;20484;-75
2022/09/30 07:17:05;;;;;;;1.67;1.10;;;10.30;99.90;;;;;;5074301;28;20461;-74
2022/09/30 07:19:34;;;;;;;2.90;0.97;;;10.30;99.90;;;;;;5074228;28;20434;-75
2022/09/30 07:22:26;;;;;;;0.60;0.50;;;10.30;99.90;;;;;;5074738;28;20430;-75
2022/09/30 07:24:49;;;;;;;0.93;0.90;;;10.40;99.90;;;;;;5073903;28;20991;-75
2022/09/30 07:27:17;;;;;;;0.80;0.53;;;10.40;99.90;;;;;;5074280;28;20445;-74
2022/09/30 07:29:45;;;;;;;1.30;1.07;;;10.50;99.90;;;;;;5073900;28;20481;-74
2022/09/30 07:32:14;;;;;;;1.80;0.83;;;10.60;99.90;;;;;;5074140;28;20496;-75
2022/09/30 07:34:43;;;;;;;1.23;1.13;;;10.60;99.90;;;;;;5074049;28;20568;-74
2022/09/30 07:37:11;;;;;;;1.70;1.60;;;10.60;99.90;;;;;;5073817;28;20857;-75
2022/09/30 07:39:37;;;;;;;11.93;1.40;;;10.60;99.90;;;;;;5074066;28;20486;-74
2022/09/30 07:42:04;;;;;;;1.70;1.60;;;10.60;99.90;;;;;;5074027;28;20800;-74
2022/09/30 07:44:32;;;;;;;1.27;0.87;;;10.70;99.90;;;;;;5073905;28;20470;-75
2022/09/30 07:47:00;;;;;;;1.70;1.60;;;10.70;99.90;;;;;;5073950;28;20454;-75
2022/09/30 07:49:28;;;;;;;1.70;1.40;;;10.70;99.90;;;;;;5073619;28;20979;-75
2022/09/30 07:51:57;;;;;;;2.63;1.40;;;10.70;99.90;;;;;;5074575;28;20588;-75
2022/09/30 07:54:26;;;;;;;1.63;1.53;;;10.70;99.90;;;;;;5073775;28;20465;-75
2022/09/30 07:56:53;;;;;;;3.37;1.77;;;10.80;99.90;;;;;;5073750;28;20453;-74
2022/09/30 07:59:20;;;;;;;3.50;1.17;;;10.80;99.90;;;;;;5073428;28;20452;-75
2022/09/30 08:01:47;;;;;;;3.10;2.20;;;10.90;99.90;;;;;;5073713;28;20441;-75
2022/09/30 08:04:16;;;;;;;2.13;1.50;;;10.90;99.90;;;;;;5073290;28;20477;-75
2022/09/30 08:06:47;;;;;;;1.80;1.70;;;11.00;99.90;;;;;;5073667;28;20457;-75
2022/09/30 08:09:16;;;;;;;3.03;1.90;;;11.00;99.90;;;;;;5073651;28;20430;-75
2022/09/30 08:11:42;;;;;;;6.73;2.07;;;11.10;99.90;;;;;;5073491;28;20489;-75
2022/09/30 08:14:14;;;;;;;1.47;1.10;;;11.10;99.90;;;;;;5073147;28;20476;-75
2022/09/30 08:16:41;;;;;;;2.20;1.33;;;11.20;99.90;;;;;;5073215;28;20433;-75
2022/09/30 08:19:13;;;;;;;1.97;1.10;;;11.20;99.90;;;;;;5073436;28;20536;-75
2022/09/30 08:21:39;;;;;;;4.30;1.97;;;11.40;99.90;;;;;;5073442;28;20436;-75
2022/09/30 08:24:08;;;;;;;5.03;3.00;;;11.30;99.90;;;;;;5073247;28;20464;-75
2022/09/30 08:26:34;;;;;;;2.13;1.80;;;11.40;99.90;;;;;;5073389;28;20225;-75
2022/09/30 08:29:01;;;;;;;3.10;1.53;;;11.40;99.90;;;;;;5073007;28;20477;-75
2022/09/30 08:31:28;;;;;;;3.67;1.60;;;11.50;99.90;;;;;;5073291;28;20481;-75
2022/09/30 08:33:55;;;;;;;2.00;1.37;;;11.60;99.90;;;;;;5073272;28;20587;-75
2022/09/30 08:36:24;;;;;;;1.07;0.83;;;11.60;99.90;;;;;;5072789;28;20445;-75
2022/09/30 08:38:52;;;;;;;2.83;1.13;;;11.60;99.90;;;;;;5073246;28;20484;-75
2022/09/30 08:41:34;;;;;;;2.00;1.00;;;11.70;99.90;;;;;;5073178;28;20456;-75
2022/09/30 08:44:14;;;;;;;1.73;1.00;;;11.70;99.90;;;;;;5073709;28;20462;-75
2022/09/30 08:46:46;;;;;;;5.40;0.70;;;11.80;99.90;;;;;;5073236;28;20430;-75
2022/09/30 08:49:28;;;;;;;1.73;1.40;;;12.00;99.90;;;;;;5072940;28;20448;-75
2022/09/30 08:51:56;;;;;;;1.00;0.90;;;12.20;99.90;;;;;;5073104;28;20469;-75
2022/09/30 08:54:26;;;;;;;1.27;0.90;;;12.40;99.90;;;;;;5073037;28;20453;-75
2022/09/30 08:56:54;;;;;;;1.30;1.10;;;12.50;99.90;;;;;;5073076;28;20833;-75
2022/09/30 08:59:29;;;;;;;3.00;1.10;;;12.60;99.90;;;;;;5073039;28;20450;-75
2022/09/30 09:02:02;;;;;;;1.57;1.20;;;12.70;99.90;;;;;;5073132;28;20425;-75
2022/09/30 09:04:29;;;;;;;2.40;1.10;;;12.90;99.90;;;;;;5072718;28;20466;-75
2022/09/30 09:07:04;;;;;;;1.57;0.93;;;13.30;99.90;;;;;;5072942;28;20446;-76
2022/09/30 09:09:48;;;;;;;4.83;1.60;;;13.90;99.90;;;;;;5072654;28;20437;-75
2022/09/30 09:12:27;;;;;;;3.47;1.40;;;14.70;99.90;;;;;;5072943;28;20475;-75
2022/09/30 09:15:15;;;;;;;3.57;1.83;;;15.00;99.90;;;;;;5072884;28;20473;-75
2022/09/30 09:17:58;;;;;;;1.70;1.10;;;15.00;99.90;;;;;;5073489;28;20440;-75
2022/09/30 09:20:32;;;;;;;4.43;1.57;;;14.80;99.90;;;;;;5072629;28;20905;-75
2022/09/30 09:23:02;;;;;;;2.53;1.13;;;14.60;99.90;;;;;;5072920;28;20422;-75
2022/09/30 09:25:30;;;;;;;1.27;0.97;;;14.50;99.90;;;;;;5072861;28;20437;-76
2022/09/30 09:28:01;;;;;;;2.20;1.10;;;14.50;99.90;;;;;;5072506;28;20485;-75
2022/09/30 09:30:32;;;;;;;1.77;1.23;;;14.60;99.90;;;;;;5072833;28;20441;-75
2022/09/30 09:33:10;;;;;;;1.10;0.77;;;14.60;99.90;;;;;;5072376;28;20519;-75
2022/09/30 09:35:44;;;;;;;1.90;0.80;;;14.80;99.90;;;;;;5072743;28;20430;-75
2022/09/30 09:38:24;;;;;;;4.77;1.20;;;15.00;99.90;;;;;;5072684;28;20429;-79
2022/09/30 09:41:05;;;;;;;5.47;1.53;;;15.20;99.90;;;;;;5072663;28;20435;-79
2022/09/30 09:43:47;;;;;;;1.07;0.90;;;15.30;99.90;;;;;;5072611;28;20503;-79
2022/09/30 09:46:22;;;;;;;2.20;0.87;;;15.40;99.90;;;;;;5072674;28;20803;-79
2022/09/30 09:48:49;;;;;;;1.30;0.80;;;15.40;99.90;;;;;;5073424;28;20848;-80
2022/09/30 09:51:24;;;;;;;5.60;2.07;;;15.50;99.90;;;;;;5076183;28;20536;-79
2022/09/30 09:53:52;;;;;;;1.20;0.87;;;15.50;99.90;;;;;;5075641;28;20865;-79
2022/09/30 09:56:21;;;;;;;2.60;1.00;;;15.50;99.90;;;;;;5076028;28;20460;-79
2022/09/30 09:59:12;;;;;;;2.13;1.00;;;15.50;99.90;;;;;;5075979;28;20446;-80
2022/09/30 10:01:41;;;;;;;1.03;0.93;;;15.50;99.90;;;;;;5076105;28;20437;-79
2022/09/30 10:04:15;;;;;;;0.90;0.90;;;15.60;99.90;;;;;;5075828;28;20489;-79
2022/09/30 10:06:51;;;;;;;1.10;1.00;;;15.80;99.90;;;;;;5075991;28;20434;-79
2022/09/30 10:09:30;;;;;;;2.10;0.80;;;15.90;99.90;;;;;;5075822;28;20437;-80
2022/09/30 10:12:34;;;;;;;0.67;0.60;;;15.90;99.90;;;;;;5075655;28;20473;-80
2022/09/30 10:15:12;;;;;;;0.80;0.60;;;16.10;99.90;;;;;;5075667;28;20461;-83
2022/09/30 10:17:39;;;;;;;0.70;0.60;;;16.20;99.90;;;;;;5075764;28;20433;-83
2022/09/30 10:20:16;;;;;;;1.70;0.87;;;16.30;99.90;;;;;;5075335;28;20452;-85
2022/09/30 10:22:43;;;;;;;0.70;0.70;;;16.40;99.90;;;;;;5075677;28;20422;-84
2022/09/30 10:25:19;;;;;;;2.20;1.00;;;16.40;99.90;;;;;;5075580;28;20461;-83
2022/09/30 10:27:52;;;;;;;1.80;0.90;;;16.50;99.90;;;;;;5075112;28;20473;-83
2022/09/30 10:30:43;;;;;;;0.90;0.80;;;16.70;99.90;;;;;;5075462;28;20429;-83
2022/09/30 10:33:19;;;;;;;1.10;1.00;;;16.90;99.90;;;;;;5074946;28;20976;-83
2022/09/30 10:35:55;;;;;;;1.17;0.80;;;16.80;99.90;;;;;;5075140;28;20429;-83
2022/09/30 10:38:24;;;;;;;1.53;0.77;;;16.50;99.90;;;;;;5075356;28;20429;-83
2022/09/30 10:40:52;;;;;;;0.73;0.73;;;16.30;99.90;;;;;;5075355;28;20446;-82
2022/09/30 10:43:23;;;;;;;0.97;0.60;;;16.30;99.90;;;;;;5074889;28;20448;-83
2022/09/30 10:45:52;;;;;;;1.80;0.97;;;16.60;99.90;;;;;;5075229;28;20430;-83
2022/09/30 10:48:23;;;;;;;0.90;0.70;;;16.70;99.90;;;;;;5074768;28;20814;-83
2022/09/30 10:50:52;;;;;;;1.17;1.07;;;17.00;99.90;;;;;;5074751;28;20935;-82
2022/09/30 10:53:23;;;;;;;0.60;0.53;;;17.20;99.90;;;;;;5074735;28;20485;-83
2022/09/30 10:55:53;;;;;;;1.23;0.80;;;17.30;99.90;;;;;;5074998;28;20441;-85
2022/09/30 10:58:42;;;;;;;2.37;0.77;;;17.30;99.90;;;;;;5075016;28;20461;-82
2022/09/30 11:01:20;;;;;;;1.53;1.17;;;17.00;99.90;;;;;;5074606;28;20430;-82
2022/09/30 11:03:55;;;;;;;0.70;0.70;;;16.70;99.90;;;;;;5074852;28;20465;-80
2022/09/30 11:06:24;;;;;;;0.83;0.80;;;16.50;99.90;;;;;;5074591;28;20406;-81
2022/09/30 11:08:57;;;;;;;0.60;0.60;;;16.50;99.90;;;;;;5074450;28;20949;-79
2022/09/30 11:11:28;;;;;;;0.80;0.70;;;16.40;99.90;;;;;;5074429;28;20483;-80
2022/09/30 11:13:57;;;;;;;2.37;0.80;;;16.40;99.90;;;;;;5074264;28;20871;-80
2022/09/30 11:16:33;;;;;;;0.90;0.60;;;16.10;99.90;;;;;;5074581;28;20473;-79
2022/09/30 11:19:05;;;;;;;1.63;1.37;;;15.90;99.90;;;;;;5074612;28;20440;-80
2022/09/30 11:21:40;;;;;;;0.70;0.70;;;15.70;99.90;;;;;;5074478;28;20426;-79
2022/09/30 11:24:22;;;;;;;2.10;0.60;;;15.40;99.90;;;;;;5074435;28;20472;-82
2022/09/30 11:26:57;;;;;;;0.60;0.60;;;15.20;99.90;;;;;;5074247;28;20479;-74
2022/09/30 11:29:47;;;;;;;0.50;0.40;;;14.90;99.90;;;;;;5073884;28;20472;-75
2022/09/30 11:32:29;;;;;;;0.97;0.60;;;14.80;99.90;;;;;;5073065;28;20795;-74
2022/09/30 11:35:03;;;;;;;0.70;0.60;;;14.80;99.90;;;;;;5074167;28;20466;-74
2022/09/30 11:37:43;;;;;;;0.60;0.60;;;14.70;99.90;;;;;;5074251;28;20776;-74
2022/09/30 11:40:29;;;;;;;1.17;0.53;;;14.80;99.90;;;;;;5074129;28;20438;-74
2022/09/30 11:43:04;;;;;;;0.83;0.80;;;14.70;99.90;;;;;;5074010;28;20430;-74
2022/09/30 11:45:39;;;;;;;0.60;0.50;;;14.70;99.90;;;;;;5073922;28;20795;-74
2022/09/30 11:48:23;;;;;;;0.80;0.77;;;14.70;99.90;;;;;;5074011;28;20429;-74
2022/09/30 11:51:02;;;;;;;0.70;0.70;;;14.60;99.90;;;;;;5073945;28;20433;-74
2022/09/30 11:53:39;;;;;;;2.27;0.60;;;14.60;99.90;;;;;;5073761;28;20485;-74
2022/09/30 11:56:20;;;;;;;0.80;0.60;;;14.60;99.90;;;;;;5073864;28;20433;-74
2022/09/30 11:58:50;;;;;;;1.27;0.60;;;14.50;99.90;;;;;;5073814;28;20433;-74
2022/09/30 12:01:22;;;;;;;1.87;0.77;;;14.50;99.90;;;;;;5073895;28;20442;-74
2022/09/30 12:03:59;;;;;;;0.60;0.60;;;14.60;99.90;;;;;;5073608;28;20465;-74
2022/09/30 12:06:31;;;;;;;1.90;0.53;;;14.60;99.90;;;;;;5073371;28;20927;-74
2022/09/30 12:09:09;;;;;;;1.40;0.80;;;14.60;99.90;;;;;;5073668;28;20524;-74
2022/09/30 12:11:43;;;;;;;0.70;0.70;;;14.50;99.90;;;;;;5072993;28;20433;-75
2022/09/30 12:14:16;;;;;;;0.90;0.80;;;14.50;99.90;;;;;;5073256;28;20488;-74
2022/09/30 12:16:46;;;;;;;3.77;1.07;;;14.40;99.90;;;;;;5073603;28;20442;-74
2022/09/30 12:19:19;;;;;;;0.60;0.60;;;14.40;99.90;;;;;;5073580;28;20426;-75
2022/09/30 12:21:53;;;;;;;1.03;1.03;;;14.40;99.90;;;;;;5073241;28;20873;-74
2022/09/30 12:24:29;;;;;;;0.57;0.57;;;14.40;99.90;;;;;;5073427;28;20461;-74
2022/09/30 12:26:56;;;;;;;0.63;0.63;;;14.50;99.90;;;;;;5073434;28;20442;-74
2022/09/30 12:32:40;;;;;;;0.67;0.60;;;14.60;99.90;;;;;;5073136;28;20756;-74
2022/09/30 12:35:31;;;;;;;0.60;0.60;;;14.60;99.90;;;;;;5073301;28;20553;-74
2022/09/30 12:38:14;;;;;;;0.93;0.80;;;14.60;99.90;;;;;;5073023;28;20979;-74
2022/09/30 12:41:12;;;;;;;2.50;0.80;;;14.70;99.90;;;;;;5073522;28;20438;-74
2022/09/30 12:44:16;;;;;;;0.90;0.50;;;14.70;99.90;;;;;;5037051;28;20485;-74
2022/09/30 12:47:07;;;;;;;0.90;0.77;;;14.60;99.90;;;;;;5072678;28;20441;-74
2022/09/30 12:49:39;;;;;;;0.70;0.70;;;14.60;99.90;;;;;;5073185;28;20438;-74
2022/09/30 12:52:14;;;;;;;1.03;0.60;;;14.60;99.90;;;;;;5072894;28;20923;-74
2022/09/30 12:54:43;;;;;;;1.33;0.90;;;14.70;99.90;;;;;;5073018;28;20489;-74
2022/09/30 12:57:11;;;;;;;0.60;0.60;;;14.70;99.90;;;;;;5073328;28;20442;-74
2022/09/30 12:59:46;;;;;;;0.53;0.53;;;14.70;99.90;;;;;;5073083;28;20454;-74
2022/09/30 13:02:34;;;;;;;0.60;0.60;;;14.70;99.90;;;;;;5073141;28;20429;-74
2022/09/30 13:05:38;;;;;;;0.60;0.60;;;14.60;99.90;;;;;;5073005;28;20472;-74
2022/09/30 13:08:37;;;;;;;0.50;0.40;;;14.60;99.90;;;;;;5072895;28;20453;-74
2022/09/30 13:11:06;;;;;;;0.50;0.50;;;14.60;99.90;;;;;;5070445;28;20996;-74
2022/09/30 13:13:35;;;;;;;0.70;0.60;;;14.50;99.90;;;;;;5072938;28;20485;-75
2022/09/30 13:16:05;;;;;;;0.87;0.77;;;14.50;99.90;;;;;;5072936;28;20878;-75
2022/09/30 13:19:00;;;;;;;1.10;0.73;;;14.40;99.90;;;;;;5072559;28;20937;-74
2022/09/30 13:21:27;;;;;;;1.87;1.00;;;14.40;99.90;;;;;;5072568;28;20453;-75